Hayes River, Alaska
Current Conditions -  °F | °C
As of 1:53 AM on Monday 22 Dec 2014 (Local Time) from PATK Reporting Station
Overcast Overcast  
Wind Chill: 22°   Ceiling: 4000
Heat Index: 28°   Visibility: 10mi
Dew Point: 22°   Wind: 6mph
Humidity: 78%   Direction: NA
Pressure: 29.59"   Gusts: NA
Location:  61.98°N, 152.08°W
Report Text: PATK 221053Z VRB05KT 10SM OVC040 M02/M06 A2959 RMK AO2 SLP026 T10221056
Loading
Personal Weather Stations






























Interactive Weather Map New forecast layout! Learn more

10-Day Weather Forecast

Advertisements
Track Severe Weather on mobile